createdAt,value
2018-01-31T01:53:28.534Z,32.80
2018-01-31T01:55:56.266Z,31.33
2018-01-31T01:58:24.060Z,29.47
2018-01-31T02:00:51.877Z,33.70
2018-01-31T02:03:19.591Z,33.93
2018-01-31T02:05:47.369Z,34.13
2018-01-31T02:08:15.172Z,34.30
2018-01-31T02:10:42.947Z,32.97
2018-01-31T02:13:10.681Z,34.63
2018-01-31T02:15:38.419Z,35.13
2018-01-31T02:18:06.231Z,32.53
2018-01-31T02:20:34.073Z,32.23
2018-01-31T02:23:01.813Z,34.23
2018-01-31T02:25:30.312Z,31.27
2018-01-31T02:27:58.460Z,35.90
2018-01-31T02:30:26.198Z,37.13
2018-01-31T02:32:54.722Z,31.90
2018-01-31T02:35:23.229Z,34.53
2018-01-31T02:37:51.025Z,34.97
2018-01-31T02:40:18.820Z,34.90
2018-01-31T02:42:46.566Z,33.60
2018-01-31T02:45:14.369Z,32.70
2018-01-31T02:47:42.130Z,32.40
2018-01-31T02:50:09.965Z,35.20
2018-01-31T02:52:37.692Z,33.33
2018-01-31T02:55:05.440Z,31.73
2018-01-31T02:57:33.186Z,32.47
2018-01-31T03:00:00.950Z,33.87
2018-01-31T03:02:29.009Z,32.57
2018-01-31T03:04:56.820Z,34.60
2018-01-31T03:07:24.535Z,36.47
2018-01-31T03:09:52.267Z,33.53
2018-01-31T03:12:20.056Z,35.90
2018-01-31T03:14:47.818Z,35.43
2018-01-31T03:17:15.624Z,33.73
2018-01-31T03:19:43.343Z,39.40
2018-01-31T03:22:13.013Z,40.97
2018-01-31T03:24:40.748Z,38.80
2018-01-31T03:27:08.541Z,43.50
2018-01-31T03:29:36.287Z,39.10
2018-01-31T03:32:04.011Z,43.47
2018-01-31T03:34:31.753Z,40.43
2018-01-31T03:36:59.550Z,39.40
2018-01-31T03:39:27.357Z,38.10
2018-01-31T03:41:55.104Z,44.07
2018-01-31T03:44:22.915Z,37.93
2018-01-31T03:46:50.700Z,36.00
2018-01-31T03:49:18.452Z,36.30
2018-01-31T03:51:46.216Z,35.47
2018-01-31T03:54:13.961Z,31.57
2018-01-31T03:56:41.771Z,36.37
2018-01-31T03:59:09.694Z,34.83
2018-01-31T04:01:37.502Z,34.50
2018-01-31T04:04:05.280Z,32.30
2018-01-31T04:06:33.029Z,31.50
2018-01-31T04:09:00.813Z,32.00
2018-01-31T04:11:28.560Z,31.30
2018-01-31T04:13:56.349Z,23.60
2018-01-31T04:16:24.163Z,28.70
2018-01-31T04:18:51.958Z,27.43
2018-01-31T04:21:19.700Z,30.90
2018-01-31T04:23:47.501Z,27.50
2018-01-31T04:26:15.305Z,32.10
2018-01-31T04:28:43.097Z,31.60
2018-01-31T04:31:10.929Z,39.43
2018-01-31T04:33:38.701Z,40.20
2018-01-31T04:36:06.679Z,37.37
2018-01-31T04:38:34.493Z,36.53
2018-01-31T04:41:03.003Z,41.13
2018-01-31T04:43:30.842Z,39.70
2018-01-31T04:45:58.635Z,34.43
2018-01-31T04:48:26.450Z,36.77
2018-01-31T04:50:54.251Z,35.93
2018-01-31T04:53:22.747Z,31.67
2018-01-31T04:55:51.330Z,28.90
2018-01-31T04:58:19.817Z,29.50
2018-01-31T05:00:47.884Z,27.27
2018-01-31T05:03:16.439Z,28.87
2018-01-31T05:05:44.220Z,27.23
2018-01-31T05:08:12.030Z,25.57
2018-01-31T05:10:39.842Z,26.93
2018-01-31T05:13:07.616Z,25.33
2018-01-31T05:15:35.443Z,23.60
2018-01-31T05:18:03.261Z,22.70
2018-01-31T05:20:31.076Z,23.23
2018-01-31T05:22:58.898Z,25.80
2018-01-31T05:25:26.688Z,23.77
2018-01-31T05:27:55.178Z,27.23
2018-01-31T05:30:22.921Z,26.30
2018-01-31T05:32:51.587Z,24.70
2018-01-31T05:35:19.398Z,27.87
2018-01-31T05:37:47.132Z,27.50
2018-01-31T05:40:14.883Z,26.40
2018-01-31T05:42:42.623Z,32.83
2018-01-31T05:45:10.384Z,25.00
2018-01-31T05:47:38.122Z,26.40
2018-01-31T05:50:05.867Z,31.27
2018-01-31T05:52:33.656Z,29.77
2018-01-31T05:55:02.317Z,30.30
2018-01-31T05:57:30.060Z,31.43
2018-01-31T05:59:57.863Z,32.23
2018-01-31T06:02:26.378Z,30.97
2018-01-31T06:04:54.248Z,31.00
2018-01-31T06:07:22.118Z,29.43
2018-01-31T06:09:49.862Z,27.80
2018-01-31T06:12:18.417Z,29.90
2018-01-31T06:14:46.477Z,28.03
2018-01-31T06:17:14.209Z,27.67
2018-01-31T06:19:42.871Z,30.00
2018-01-31T06:22:11.415Z,27.37
2018-01-31T06:24:39.213Z,30.70
2018-01-31T06:27:07.009Z,24.13
2018-01-31T06:29:34.753Z,29.80
2018-01-31T06:32:03.269Z,31.97
2018-01-31T06:34:31.074Z,30.10
2018-01-31T06:36:58.919Z,32.30
2018-01-31T06:39:26.671Z,31.53
2018-01-31T06:41:54.670Z,28.97
2018-01-31T06:44:23.167Z,33.80
2018-01-31T06:46:50.946Z,33.13
2018-01-31T06:49:18.822Z,31.43
2018-01-31T06:51:46.571Z,32.30
2018-01-31T06:54:14.311Z,29.93
2018-01-31T06:56:42.428Z,39.43
2018-01-31T06:59:10.441Z,30.70
2018-01-31T07:01:38.244Z,32.73
2018-01-31T07:04:06.057Z,35.10
2018-01-31T07:06:33.833Z,38.33
2018-01-31T07:09:01.569Z,37.67
2018-01-31T07:11:29.509Z,32.37
2018-01-31T07:13:57.517Z,33.70
2018-01-31T07:16:25.461Z,31.53
2018-01-31T07:18:53.198Z,33.30
2018-01-31T07:21:21.019Z,33.53
2018-01-31T07:23:48.876Z,36.93
2018-01-31T07:26:16.734Z,34.67
2018-01-31T07:28:44.531Z,31.50
2018-01-31T07:31:13.075Z,34.00
2018-01-31T07:33:41.105Z,32.63
2018-01-31T07:36:08.880Z,38.63
2018-01-31T07:38:36.690Z,38.57
2018-01-31T07:41:04.460Z,34.47
2018-01-31T07:43:32.259Z,35.77
2018-01-31T07:46:03.975Z,32.80
2018-01-31T07:48:34.989Z,35.30
2018-01-31T07:51:02.913Z,35.00
2018-01-31T07:53:30.654Z,42.07
2018-01-31T07:55:58.436Z,36.67
2018-01-31T07:58:26.707Z,47.50
2018-01-31T08:00:54.447Z,35.60
2018-01-31T08:03:22.189Z,43.30
2018-01-31T08:05:50.013Z,41.43
2018-01-31T08:08:17.769Z,38.47
2018-01-31T08:10:45.532Z,41.63
2018-01-31T08:13:13.293Z,38.93
2018-01-31T08:15:41.136Z,36.13
2018-01-31T08:18:08.974Z,43.00
2018-01-31T08:20:36.729Z,39.73
2018-01-31T08:23:04.460Z,40.80
2018-01-31T08:25:32.234Z,45.37
2018-01-31T08:27:59.970Z,45.23
2018-01-31T08:30:27.752Z,40.13
2018-01-31T08:32:55.503Z,47.33
2018-01-31T08:35:23.342Z,44.43
2018-01-31T08:37:51.089Z,41.60
2018-01-31T08:40:18.836Z,42.80
2018-01-31T08:42:46.568Z,40.40
2018-01-31T08:45:14.470Z,40.80
2018-01-31T08:47:42.265Z,45.30
2018-01-31T08:50:10.199Z,44.80
2018-01-31T08:52:38.050Z,38.87
2018-01-31T08:55:05.800Z,42.40
2018-01-31T08:57:33.572Z,42.77
2018-01-31T09:00:01.320Z,45.80
2018-01-31T09:02:29.125Z,44.70
2018-01-31T09:04:57.030Z,45.37
2018-01-31T09:07:24.796Z,47.10
2018-01-31T09:09:52.637Z,42.57
2018-01-31T09:12:20.419Z,46.87
2018-01-31T09:14:48.167Z,45.57
2018-01-31T09:17:15.887Z,49.10
2018-01-31T09:19:44.493Z,43.67
2018-01-31T09:22:12.224Z,43.13
2018-01-31T09:24:39.983Z,49.20
2018-01-31T09:27:07.755Z,41.70
2018-01-31T09:29:35.494Z,47.77
2018-01-31T09:32:03.330Z,45.80
2018-01-31T09:34:31.059Z,41.43
2018-01-31T09:37:00.616Z,52.23
2018-01-31T09:39:29.240Z,46.23
2018-01-31T09:41:58.512Z,42.93
2018-01-31T09:44:26.967Z,51.53
2018-01-31T09:46:54.988Z,48.30
2018-01-31T09:49:23.583Z,43.13
2018-01-31T09:51:52.768Z,49.30
2018-01-31T09:54:21.996Z,53.27
2018-01-31T09:56:50.252Z,50.97
2018-01-31T09:59:19.089Z,44.73
2018-01-31T10:01:47.262Z,44.23
2018-01-31T10:04:15.401Z,51.40
2018-01-31T10:06:43.999Z,50.23
2018-01-31T10:09:13.083Z,47.83
2018-01-31T10:11:40.948Z,45.53
2018-01-31T10:14:08.750Z,41.40
2018-01-31T10:16:37.193Z,44.93
2018-01-31T10:19:04.996Z,42.40
2018-01-31T10:21:32.745Z,46.10
2018-01-31T10:24:00.548Z,44.03
2018-01-31T10:26:29.298Z,47.77
2018-01-31T10:28:57.120Z,44.07
2018-01-31T10:31:25.125Z,47.87
2018-01-31T10:33:52.854Z,47.10
2018-01-31T10:36:20.589Z,48.93
2018-01-31T10:38:48.399Z,51.57
2018-01-31T10:41:16.232Z,49.33
2018-01-31T10:43:43.962Z,45.63
2018-01-31T10:46:11.736Z,50.97
2018-01-31T10:48:39.533Z,51.93
2018-01-31T10:51:07.327Z,50.07
2018-01-31T10:58:31.602Z,45.50
2018-01-31T11:00:59.332Z,41.53
2018-01-31T11:03:27.071Z,52.13
2018-01-31T11:05:54.892Z,46.33
2018-01-31T11:08:22.633Z,46.70
2018-01-31T11:10:50.438Z,46.20
2018-01-31T11:13:18.244Z,51.00
2018-01-31T11:15:47.399Z,53.60
2018-01-31T11:18:16.580Z,50.30
2018-01-31T11:20:45.518Z,48.83
2018-01-31T11:23:14.804Z,50.60
2018-01-31T11:25:44.333Z,48.83
2018-01-31T11:28:14.705Z,54.10
2018-01-31T11:30:44.685Z,47.43
2018-01-31T11:33:14.051Z,53.30
2018-01-31T11:35:43.654Z,46.77
2018-01-31T11:38:13.269Z,47.57
2018-01-31T11:40:42.265Z,48.20
2018-01-31T11:43:11.365Z,48.00
2018-01-31T11:45:41.090Z,49.23
2018-01-31T11:48:09.086Z,51.37
2018-01-31T11:50:39.136Z,44.87
2018-01-31T11:53:08.780Z,49.67
2018-01-31T11:55:37.046Z,46.47
2018-01-31T11:58:04.873Z,48.23
2018-01-31T12:00:45.447Z,46.50
2018-01-31T12:03:13.191Z,45.83
2018-01-31T12:05:41.040Z,48.77
2018-01-31T12:08:08.860Z,44.60
2018-01-31T12:10:41.520Z,51.53
2018-01-31T12:13:21.802Z,44.30
2018-01-31T12:16:01.252Z,48.97
2018-01-31T12:18:40.690Z,45.93
2018-01-31T12:21:20.395Z,49.43
2018-01-31T12:23:59.965Z,48.97
2018-01-31T12:26:39.498Z,49.23
2018-01-31T12:29:19.099Z,48.40
2018-01-31T12:31:58.653Z,47.33
2018-01-31T12:34:38.788Z,48.27
2018-01-31T12:37:18.297Z,49.50
2018-01-31T12:39:45.550Z,49.93
2018-01-31T12:42:12.803Z,49.07
2018-01-31T12:44:40.063Z,54.53
2018-01-31T12:47:19.650Z,49.63
2018-01-31T12:49:59.268Z,48.17
2018-01-31T12:52:39.190Z,46.90
2018-01-31T12:55:18.887Z,46.90
2018-01-31T12:57:58.377Z,47.40
2018-01-31T13:00:38.006Z,53.60
2018-01-31T13:03:18.228Z,50.40
2018-01-31T13:05:57.726Z,45.20
2018-01-31T13:08:37.371Z,45.47
2018-01-31T13:11:17.055Z,42.10
2018-01-31T13:27:25.290Z,46.50
2018-01-31T13:30:05.247Z,43.63
2018-01-31T13:32:45.086Z,48.20
2018-01-31T13:35:25.036Z,43.00
2018-01-31T13:38:10.625Z,46.63
2018-01-31T13:40:50.259Z,43.40
2018-01-31T13:43:30.012Z,49.40
2018-01-31T13:46:09.653Z,49.37
2018-01-31T13:48:49.609Z,48.27
2018-01-31T13:51:30.987Z,46.60
2018-01-31T13:54:10.935Z,47.13
2018-01-31T13:56:50.686Z,53.27
2018-01-31T13:59:30.636Z,49.57
2018-01-31T14:02:11.313Z,53.43
2018-01-31T14:04:51.972Z,46.93
2018-01-31T14:07:31.706Z,52.20
2018-01-31T14:10:11.655Z,44.23
2018-01-31T14:12:51.514Z,42.67
2018-01-31T14:15:31.258Z,47.67
2018-01-31T14:18:11.007Z,52.20
2018-01-31T14:20:50.751Z,46.07
2018-01-31T14:23:30.635Z,46.50
2018-01-31T14:26:10.550Z,42.47
2018-01-31T14:28:51.937Z,46.83
2018-01-31T14:31:31.772Z,42.37
2018-01-31T14:34:11.885Z,44.50
2018-01-31T14:36:40.110Z,45.97
2018-01-31T14:39:07.457Z,43.40
2018-01-31T14:41:34.930Z,39.87
2018-01-31T14:44:03.601Z,41.43
2018-01-31T14:46:30.918Z,44.70
2018-01-31T14:48:58.987Z,43.13
2018-01-31T14:51:26.378Z,46.53
2018-01-31T14:53:53.730Z,41.40
2018-01-31T14:56:21.091Z,39.83
2018-01-31T14:58:48.448Z,43.87
2018-01-31T15:01:15.818Z,42.03
2018-01-31T15:03:44.334Z,45.30
2018-01-31T15:06:11.731Z,46.13
2018-01-31T15:08:39.192Z,43.33
2018-01-31T15:11:06.540Z,38.40
2018-01-31T15:13:34.726Z,40.53
2018-01-31T15:16:02.075Z,40.77
2018-01-31T15:18:29.426Z,43.97
2018-01-31T15:20:56.883Z,39.50
2018-01-31T15:23:24.244Z,55.73
2018-01-31T15:25:51.599Z,44.37
2018-01-31T15:28:18.949Z,46.53
2018-01-31T15:30:46.613Z,44.53
2018-01-31T15:33:13.960Z,48.13
2018-01-31T15:35:41.323Z,54.20
2018-01-31T15:38:08.667Z,51.23
2018-01-31T15:40:36.025Z,51.73
2018-01-31T15:43:03.489Z,54.80
2018-01-31T15:45:30.949Z,49.03
2018-01-31T15:47:58.404Z,46.10
2018-01-31T15:50:25.860Z,48.00
2018-01-31T15:52:53.205Z,46.40
2018-01-31T15:55:20.671Z,45.00
2018-01-31T15:57:48.230Z,46.13
2018-01-31T16:00:15.639Z,56.03
2018-01-31T16:02:42.985Z,49.83
2018-01-31T16:05:10.502Z,48.70
2018-01-31T16:07:37.866Z,45.50
2018-01-31T16:10:06.429Z,51.00
2018-01-31T16:12:33.997Z,47.73
2018-01-31T16:15:16.566Z,59.00
2018-01-31T16:17:44.305Z,54.50
2018-01-31T16:20:23.955Z,47.80
2018-01-31T16:22:52.224Z,49.10
2018-01-31T16:25:21.969Z,47.43
2018-01-31T16:28:01.599Z,49.20
2018-01-31T16:30:29.406Z,45.23
2018-01-31T16:33:09.108Z,44.83
2018-01-31T16:35:37.465Z,53.10
2018-01-31T16:38:05.358Z,51.20
2018-01-31T16:40:33.272Z,57.00
2018-01-31T16:43:01.265Z,49.90
2018-01-31T16:45:29.131Z,53.83
2018-01-31T16:47:57.011Z,65.47
2018-01-31T16:50:25.056Z,55.97
2018-01-31T16:52:52.863Z,50.93
2018-01-31T16:55:20.694Z,47.23
2018-01-31T16:57:49.491Z,51.33
2018-01-31T17:00:17.427Z,51.87
2018-01-31T17:02:45.271Z,50.80
2018-01-31T17:05:13.065Z,50.87
2018-01-31T17:07:41.897Z,52.40
2018-01-31T17:10:09.783Z,47.17
2018-01-31T17:12:37.613Z,51.03
2018-01-31T17:15:05.357Z,50.97
2018-01-31T17:17:33.218Z,47.57
2018-01-31T17:20:00.981Z,50.50
2018-01-31T17:22:28.817Z,52.80
2018-01-31T17:24:56.563Z,47.57
2018-01-31T17:27:24.325Z,47.60
2018-01-31T17:29:52.071Z,51.83
2018-01-31T17:32:19.807Z,55.40
2018-01-31T17:34:47.654Z,45.60
2018-01-31T17:37:18.021Z,56.20
2018-01-31T17:39:45.799Z,57.93
2018-01-31T17:42:13.719Z,53.00
2018-01-31T17:44:53.265Z,62.33
2018-01-31T17:47:22.863Z,61.47
2018-01-31T17:49:54.104Z,60.50
2018-01-31T17:52:25.639Z,53.33
2018-01-31T17:57:28.201Z,66.80
2018-01-31T17:59:57.061Z,66.40
2018-01-31T18:02:25.732Z,58.17
2018-01-31T18:04:53.595Z,59.77
2018-01-31T18:07:26.770Z,62.37
2018-01-31T18:09:55.769Z,56.87
2018-01-31T18:12:24.748Z,55.47
2018-01-31T18:14:52.601Z,58.57
2018-01-31T18:17:23.862Z,59.70
2018-01-31T18:19:57.154Z,56.13
2018-01-31T18:22:27.431Z,59.60
2018-01-31T18:24:55.464Z,57.43
2018-01-31T18:27:25.127Z,58.73
2018-01-31T18:29:55.664Z,61.90
2018-01-31T18:32:26.729Z,61.97
2018-01-31T18:34:55.477Z,65.03
2018-01-31T18:37:25.242Z,63.70
2018-01-31T18:39:55.045Z,66.37
2018-01-31T18:42:23.114Z,67.83
2018-01-31T18:44:51.783Z,64.40
2018-01-31T18:47:21.284Z,69.57
2018-01-31T18:49:57.329Z,68.30
2018-01-31T18:52:26.905Z,70.77
2018-01-31T18:54:54.860Z,63.80
2018-01-31T18:57:22.781Z,69.93
2018-01-31T18:59:50.676Z,69.10
2018-01-31T19:02:20.118Z,71.67
2018-01-31T19:04:49.037Z,69.30
2018-01-31T19:07:17.084Z,63.37
2018-01-31T19:09:47.519Z,72.57
2018-01-31T19:12:16.236Z,66.20
2018-01-31T19:14:47.378Z,64.77
2018-01-31T19:17:22.585Z,71.47
2018-01-31T19:19:52.378Z,76.50
2018-01-31T19:22:33.718Z,66.05
2018-01-31T19:25:01.642Z,69.30
2018-01-31T19:27:30.751Z,70.67
2018-01-31T19:29:58.542Z,62.93
2018-01-31T19:32:26.501Z,65.87
2018-01-31T19:34:54.395Z,64.77
2018-01-31T19:37:22.255Z,68.40
2018-01-31T19:39:51.420Z,66.00
2018-01-31T19:42:19.347Z,69.57
2018-01-31T19:44:47.152Z,75.03
2018-01-31T19:47:15.958Z,65.17
2018-01-31T19:49:47.142Z,67.77
2018-01-31T19:52:15.052Z,62.83
2018-01-31T19:54:43.013Z,67.00
2018-01-31T19:57:10.818Z,63.83
2018-01-31T19:59:41.556Z,66.20
2018-01-31T20:02:09.597Z,72.30
2018-01-31T20:04:41.194Z,69.83
2018-01-31T20:07:09.973Z,65.77
2018-01-31T20:09:38.766Z,59.17
2018-01-31T20:12:08.277Z,62.97
2018-01-31T20:14:38.358Z,65.50
2018-01-31T20:17:06.961Z,65.00
2018-01-31T20:19:36.640Z,60.97
2018-01-31T20:22:09.368Z,65.47
2018-01-31T20:24:37.726Z,68.23
2018-01-31T20:27:09.147Z,67.57
2018-01-31T20:29:37.502Z,71.20
2018-01-31T20:32:08.097Z,69.20
2018-01-31T20:34:38.653Z,77.00
2018-01-31T20:37:06.909Z,68.37
2018-01-31T20:39:34.811Z,69.37
2018-01-31T20:42:08.248Z,67.47
2018-01-31T20:44:37.717Z,66.67
2018-01-31T20:47:07.775Z,64.73
2018-01-31T20:49:39.266Z,74.53
2018-01-31T20:52:16.881Z,71.67
2018-01-31T20:55:01.104Z,67.93
2018-01-31T21:01:01.605Z,69.60
2018-01-31T21:03:33.523Z,73.57
2018-01-31T21:06:01.758Z,70.53
2018-01-31T21:08:32.551Z,70.33
2018-01-31T21:11:01.479Z,72.40
2018-01-31T21:13:30.621Z,66.53
2018-01-31T21:16:02.944Z,69.23
2018-01-31T21:18:31.794Z,73.00
2018-01-31T21:21:01.439Z,70.67
2018-01-31T21:23:29.296Z,76.40
2018-01-31T21:25:57.051Z,66.40
2018-01-31T21:28:27.208Z,77.00
2018-01-31T21:30:56.798Z,77.83
2018-01-31T21:33:25.351Z,74.53
2018-01-31T21:35:56.124Z,71.90
2018-01-31T21:38:24.015Z,73.97
2018-01-31T21:40:52.619Z,75.50
2018-01-31T21:43:21.927Z,82.07
2018-01-31T21:45:49.787Z,77.40
2018-01-31T21:48:18.395Z,73.13
2018-01-31T21:50:48.443Z,73.83
2018-01-31T21:53:22.632Z,76.87
2018-01-31T21:55:56.470Z,77.90
2018-01-31T21:58:24.279Z,70.30
2018-01-31T22:00:52.919Z,71.03
2018-01-31T22:03:20.706Z,74.60
2018-01-31T22:05:48.523Z,75.13
2018-01-31T22:08:17.667Z,73.30
2018-01-31T22:10:45.411Z,72.90
2018-01-31T22:13:13.209Z,77.33
2018-01-31T22:15:40.960Z,75.90
2018-01-31T22:18:08.758Z,77.63
2018-01-31T22:20:36.595Z,80.00
2018-01-31T22:23:04.421Z,73.60
2018-01-31T22:25:32.175Z,77.40
2018-01-31T22:28:00.876Z,81.20
2018-01-31T22:30:28.695Z,73.40
2018-01-31T22:32:56.480Z,81.03
2018-01-31T22:35:24.246Z,74.67
2018-01-31T22:37:52.053Z,72.30
2018-01-31T22:40:19.875Z,77.90
2018-01-31T22:42:47.762Z,82.57
2018-01-31T22:45:16.325Z,76.57
2018-01-31T22:47:44.077Z,81.03
2018-01-31T22:50:13.102Z,82.47
2018-01-31T22:52:40.890Z,74.63
2018-01-31T22:55:08.655Z,75.80
2018-01-31T22:57:36.465Z,69.67
2018-01-31T23:00:04.317Z,76.77
2018-01-31T23:02:32.124Z,73.00
2018-01-31T23:04:59.910Z,73.80
2018-01-31T23:07:27.707Z,78.53
2018-01-31T23:09:55.541Z,67.67
2018-01-31T23:12:24.177Z,86.67
2018-01-31T23:14:53.936Z,70.27
2018-01-31T23:17:27.236Z,80.73
2018-01-31T23:19:54.984Z,81.10
2018-01-31T23:22:22.871Z,79.47
2018-01-31T23:24:50.629Z,77.43
2018-01-31T23:27:18.387Z,73.43
2018-01-31T23:29:46.131Z,76.67
2018-01-31T23:32:13.883Z,75.47
2018-01-31T23:34:41.654Z,79.10
2018-01-31T23:37:09.440Z,82.50
2018-01-31T23:39:37.205Z,74.33
2018-01-31T23:42:04.973Z,74.57
2018-01-31T23:44:32.747Z,70.83
2018-01-31T23:47:00.486Z,64.43
2018-01-31T23:49:28.237Z,77.33
2018-01-31T23:51:55.987Z,67.13
2018-01-31T23:54:24.584Z,72.87
2018-01-31T23:56:52.409Z,68.23
2018-01-31T23:59:20.220Z,69.03
